Terminal Aerodrome Forecast
Issued by NWS

Home | Current Version | Previous Version | Text Only | Print | Product List | Glossary On
Versions: 1 2 3 4 5 6 7 8 9 10 11 12 13 14 15 16 17 18 19 20 21 22 23 24 25 26 27
000
FTUS41 KBOX 030540
TAFBAF
TAF
KBAF 030540Z 0306/0406 16004KT P6SM SKC
     FM031500 20007KT P6SM SCT250
     FM031800 21010G20KT P6SM SCT250
     FM040000 19007KT P6SM BKN100=

USA.gov is the U.S. government's official web portal to all federal, state and local government web resources and services.